LIPE/BLQ METAR and TAF weather

Enter ICAO airport designator
Station Type Date Time Source
LIPE METAR 2021/03/04 23:50 UTC NOAA

LIPE 042350Z 20004KT CAVOK 07/01 Q1018


Station Type Date Time Source
LIPE Decoded METAR 2021/03/04 23:50 UTC NOAA

Bologna / Borgo Panigale, Italy (LIPE) 44-32N 011-18E 49M
Mar 04, 2021 - 06:50 PM EST / 2021.03.04 2350 UTC
Wind: from the SSW (200 degrees) at 5 MPH (4 KT):0
Visibility: greater than 7 mile(s):0
Temperature: 44 F (7 C)
Dew Point: 33 F (1 C)
Relative Humidity: 65%
Pressure (altimeter): 30.06 in. Hg (1018 hPa)
ob: LIPE 042350Z 20004KT CAVOK 07/01 Q1018
cycle: 0

Station Type Date Time Source
LIPE TAF 2021/03/04 18:23 UTC NOAA

TAF LIPE 041700Z 0418/0518 VRB05KT CAVOK

Example: see airport list